EIDL

Donegal Airport

Donegal, Ireland
METAR EIDL 221000Z 04011KT 9999 OVC019 11/06 Q1024
Observed Flight Rules
May-22 @ 10:00 UTC (18 minutes ago) Marginal Visual Flight Rules
Wind Visibility Clouds
40° at 11 knots 10,000+ meters
  • Overcast at 1,900' AGL
Temperatures Readings
Current 11°C / 52°F
Dewpoint 6°C / 43°F
Humidity 72%
Altimeter 30.24" Hg
Pressure 1024 hPa
Elevation 9
METAR EIDL 221000Z 04011KT 9999 OVC019 11/06 Q1024
Observed Flight Rules
May-22 @ 10:00 UTC
(18 minutes ago)
MVFR
Wind Visibility
40° at 11 knots 10,000+ meters
Clouds
  • Overcast at 1,900' AGL
Temperature Dewpoint
11°C / 52°F 6°C / 43°F
Humidity Altimeter Pressure
72% 30.24" Hg 1024 hPa